METAR Data
IDs: Format: Raw Decoded Include TAF

Data at: 0916 UTC 07 Dec 2021

KIMM 070855Z AUTO 00000KT 10SM FEW003 FEW039 SCT046 15/14 A3006 RMK AO2 PWINO
KIMM 070835Z AUTO 00000KT 1/2SM FG OVC003 15/14 A3005 RMK AO2 PWINO
KIMM 070815Z AUTO 17003KT 1SM BR SCT003 SCT043 15/14 A3006 RMK AO2 VIS 1/2V5 PWINO
KIMM 070755Z AUTO 00000KT 1 3/4SM BR SCT003 SCT033 15/14 A3006 RMK AO2 VIS 1 1/2V2 1/2 PWINO
KIMM 070735Z AUTO 00000KT 1 1/4SM BR SCT003 SCT033 SCT039 15/14 A3006 RMK AO2 PWINO
KIMM 070715Z AUTO 00000KT 10SM FEW043 15/15 A3007 RMK AO2 PWINO
KIMM 070655Z AUTO 00000KT 10SM FEW046 15/14 A3008 RMK AO2 PWINO
KIMM 070635Z AUTO 00000KT 9SM CLR 15/15 A3008 RMK AO2 PWINO
KIMM 070615Z AUTO 00000KT 10SM FEW035 FEW041 16/15 A3008 RMK AO2 PWINO
KIMM 070555Z AUTO 00000KT 10SM FEW035 FEW047 FEW060 16/15 A3008 RMK AO2 PWINO
KIMM 070535Z AUTO 00000KT 10SM CLR 17/16 A3008 RMK AO2 PWINO
KIMM 070515Z AUTO 00000KT 9SM CLR 16/15 A3009 RMK AO2 PWINO
KIMM 070455Z AUTO 00000KT 10SM CLR 16/15 A3009 RMK AO2 PWINO
KIMM 070435Z AUTO 00000KT 10SM CLR 17/16 A3010 RMK AO2 PWINO
KIMM 070415Z AUTO 31003KT 10SM CLR 18/16 A3011 RMK AO2 PWINO
KIMM 070355Z AUTO 31004KT 10SM CLR 18/16 A3011 RMK AO2 PWINO
KIMM 070335Z AUTO 31003KT 10SM CLR 18/16 A3010 RMK AO2 PWINO
KIMM 070315Z AUTO 00000KT 10SM FEW055 19/17 A3011 RMK AO2 PWINO
KIMM 070255Z AUTO 31004KT 10SM CLR 19/17 A3011 RMK AO2 PWINO
KIMM 070235Z AUTO 31004KT 10SM CLR 19/17 A3011 RMK AO2 PWINO
KIMM 070215Z AUTO 31004KT 10SM CLR 20/17 A3011 RMK AO2 PWINO
KIMM 070155Z AUTO 30004KT 10SM CLR 20/18 A3010 RMK AO2 PWINO
KIMM 070135Z AUTO 29004KT 10SM CLR 20/18 A3010 RMK AO2 PWINO
KIMM 070115Z AUTO 28004KT 10SM CLR 19/17 A3009 RMK AO2 PWINO
KIMM 070055Z AUTO 00000KT 10SM CLR 19/17 A3008 RMK AO2 PWINO
KIMM 070035Z AUTO 00000KT 10SM CLR 20/17 A3007 RMK AO2 PWINO
KIMM 070015Z AUTO 26003KT 10SM CLR 20/18 A3006 RMK AO2 PWINO
KIMM 062355Z AUTO 25004KT 10SM FEW046 20/18 A3006 RMK AO2 PWINO
KIMM 062335Z AUTO 00000KT 10SM CLR 20/18 A3006 RMK AO2 PWINO
KIMM 062315Z AUTO 00000KT 10SM CLR 21/18 A3005 RMK AO2 PWINO
KIMM 062255Z AUTO 00000KT 10SM CLR 22/18 A3005 RMK AO2 PWINO
KIMM 062235Z AUTO 00000KT 10SM CLR 24/18 A3005 RMK AO2 PWINO
KIMM 062215Z AUTO 00000KT 10SM CLR 26/17 A3004 RMK AO2 LTG DSNT NE PWINO
KIMM 062155Z AUTO 29004KT 10SM CLR 27/18 A3004 RMK AO2 PWINO
KIMM 062135Z AUTO 29005KT 10SM CLR 27/18 A3003 RMK AO2 PWINO
KIMM 062115Z AUTO 28007G14KT 10SM CLR 28/18 A3003 RMK AO2 PWINO
KIMM 062055Z AUTO 27010KT 10SM CLR 29/19 A3002 RMK AO2 LTG DSNT E PWINO
KIMM 062035Z AUTO 29007KT 10SM FEW042 FEW050 FEW065 29/19 A3003 RMK AO2 PWINO
KIMM 062015Z AUTO 29007KT 250V310 10SM CLR 29/19 A3003 RMK AO2 LTG DSNT E PWINO
KIMM 061955Z AUTO 28008KT 10SM FEW039 FEW045 SCT055 29/20 A3004 RMK AO2 PWINO
KIMM 061935Z AUTO 27008KT 10SM FEW039 SCT055 29/20 A3004 RMK AO2 PWINO
KIMM 061915Z AUTO 7.58333308KT 10SM FEW034 SCT040 SCT050 31/20 A3004 RMK AO2 PWINO
KIMM 061855Z AUTO 27005KT 10SM FEW035 SCT043 SCT055 30/20 A3005 RMK AO2 PWINO
KIMM 061835Z AUTO VRB05KT 10SM FEW037 FEW047 29/20 A3005 RMK AO2 PWINO
KIMM 061815Z AUTO VRB03KT 10SM FEW028 31/20 A3006 RMK AO2 PWINO
KIMM 061755Z AUTO VRB04KT 10SM SCT027 SCT032 30/21 A3007 RMK AO2 PWINO
KIMM 061735Z AUTO 00000KT 10SM SCT026 SCT031 SCT039 29/21 A3008 RMK AO2 PWINO
KIMM 061715Z AUTO 10004KT 10SM CLR 29/21 A3009 RMK AO2 PWINO
KIMM 061655Z AUTO 00000KT 10SM SCT020 28/22 A3010 RMK AO2 PWINO
KIMM 061635Z AUTO 00000KT 10SM SCT019 SCT024 28/21 A3011 RMK AO2 PWINO
KIMM 061615Z AUTO 11004KT 10SM SCT017 29/22 A3012 RMK AO2 PWINO
KIMM 061555Z AUTO 00000KT 10SM FEW015 BKN060 BKN065 28/22 A3013 RMK AO2 PWINO
KIMM 061535Z AUTO 00000KT 10SM SCT060 27/22 A3014 RMK AO2 PWINO
KIMM 061515Z AUTO 00000KT 10SM BKN060 26/22 A3014 RMK AO2 PWINO
KIMM 061455Z AUTO 00000KT 10SM BKN060 BKN070 25/22 A3015 RMK AO2 PWINO
KIMM 061435Z AUTO 00000KT 10SM FEW065 24/22 A3015 RMK AO2 PWINO
KIMM 061415Z AUTO 00000KT 10SM FEW026 BKN065 22/21 A3014 RMK AO2 PWINO
KIMM 061355Z AUTO 00000KT 10SM SCT026 SCT037 BKN070 21/21 A3014 RMK AO2 PWINO
KIMM 061335Z AUTO 00000KT 9SM FEW025 FEW031 SCT060 20/20 A3013 RMK AO2 PWINO
KIMM 061315Z AUTO 07003KT 5SM BR FEW003 SCT012 BKN025 19/19 A3013 RMK AO2 PWINO
KIMM 061255Z AUTO 09003KT 3/4SM BR OVC003 19/19 A3013 RMK AO2 PWINO
KIMM 061235Z AUTO 00000KT 5SM BR BKN003 BKN030 OVC035 18/18 A3013 RMK AO2 PWINO
KIMM 061215Z AUTO 00000KT 1/2SM BR OVC002 18/17 A3012 RMK AO2 PWINO
KIMM 061155Z AUTO 00000KT 1/2SM FG OVC002 17/17 A3012 RMK AO2 PWINO
KIMM 061135Z AUTO 00000KT 1/2SM FG OVC002 17/17 A3011 RMK AO2 PWINO
KIMM 061115Z AUTO 00000KT 1/4SM FG OVC002 17/17 A3010 RMK AO2 PWINO
KIMM 061055Z AUTO 00000KT 1/4SM FG OVC002 17/17 A3010 RMK AO2 PWINO
KIMM 061035Z AUTO 00000KT 3/4SM BR OVC002 17/17 A3010 RMK AO2 PWINO
KIMM 061015Z AUTO 00000KT 1/2SM FG OVC002 17/17 A3009 RMK AO2 PWINO
KIMM 060955Z AUTO 00000KT 1/2SM FG OVC002 17/17 A3009 RMK AO2 PWINO
KIMM 060935Z AUTO 00000KT 1/2SM FG BKN001 OVC030 17/17 A3009 RMK AO2 PWINO
KIMM 060915Z AUTO 00000KT 1/2SM FG OVC002 17/17 A3009 RMK AO2 PWINO
KIMM 060855Z AUTO 00000KT 1/4SM FG OVC002 17/17 A3009 RMK AO2 PWINO
KIMM 060835Z AUTO 02003KT 1/4SM FG OVC002 18/18 A3009 RMK AO2 PWINO
KIMM 060815Z AUTO 00000KT M1/4SM FG OVC002 18/18 A3010 RMK AO2 PWINO
KIMM 060755Z AUTO 00000KT M1/4SM FG OVC003 18/18 A3010 RMK AO2 PWINO
KIMM 060735Z AUTO 00000KT 1/4SM FG OVC002 18/17 A3010 RMK AO2 PWINO
KIMM 060715Z AUTO 00000KT M1/4SM FG OVC002 18/18 A3010 RMK AO2 PWINO
KIMM 060655Z AUTO 00000KT M1/4SM FG OVC002 18/18 A3011 RMK AO2 PWINO
KIMM 060635Z AUTO 00000KT M1/4SM FG OVC002 18/18 A3011 RMK AO2 PWINO
KIMM 060615Z AUTO 00000KT 1/2SM FG OVC002 18/18 A3011 RMK AO2 PWINO
KIMM 060555Z AUTO 00000KT 4SM BR SCT002 18/18 A3011 RMK AO2 PWINO
KIMM 060535Z AUTO 09004KT 8SM CLR 19/19 A3011 RMK AO2 PWINO
KIMM 060515Z AUTO 10005KT 10SM CLR 19/19 A3012 RMK AO2 PWINO
KIMM 060455Z AUTO 00000KT 6SM BR CLR 18/18 A3012 RMK AO2 PWINO
KIMM 060435Z AUTO 00000KT 10SM CLR 19/18 A3013 RMK AO2 PWINO
KIMM 060415Z AUTO 05003KT 10SM CLR 19/19 A3013 RMK AO2 PWINO
KIMM 060355Z AUTO 07004KT 10SM CLR 19/19 A3013 RMK AO2 PWINO
KIMM 060335Z AUTO 06004KT 10SM CLR 19/19 A3013 RMK AO2 PWINO
KIMM 060315Z AUTO 09005KT 10SM CLR 19/18 A3013 RMK AO2 PWINO
KIMM 060255Z AUTO 07003KT 10SM FEW050 19/18 A3013 RMK AO2 PWINO
KIMM 060235Z AUTO 00000KT 10SM FEW046 FEW050 19/18 A3012 RMK AO2 PWINO
KIMM 060215Z AUTO 01004KT 10SM FEW045 SCT055 20/19 A3012 RMK AO2 PWINO
KIMM 060155Z AUTO 02004KT 10SM FEW050 20/19 A3011 RMK AO2 PWINO
KIMM 060135Z AUTO 03003KT 10SM FEW047 FEW055 20/19 A3011 RMK AO2 PWINO
KIMM 060115Z AUTO 02004KT 10SM FEW028 FEW036 SCT043 20/19 A3010 RMK AO2 PWINO
KIMM 060055Z AUTO 05004KT 10SM FEW027 SCT036 BKN055 20/19 A3010 RMK AO2 PWINO
KIMM 060035Z AUTO 02004KT 10SM FEW026 FEW032 SCT044 20/19 A3010 RMK AO2 PWINO
KIMM 060015Z AUTO 01004KT 10SM FEW036 FEW043 SCT050 21/19 A3010 RMK AO2 PWINO
KIMM 052355Z AUTO 02004KT 10SM FEW033 BKN042 BKN049 21/19 A3009 RMK AO2 PWINO
KIMM 052335Z AUTO 04005KT 10SM FEW036 SCT044 21/19 A3009 RMK AO2 PWINO
KIMM 052315Z AUTO 04005KT 10SM FEW043 22/19 A3008 RMK AO2 PWINO
KIMM 052255Z AUTO 03005KT 10SM CLR 22/19 A3008 RMK AO2 PWINO
KIMM 052235Z AUTO 04007KT 10SM CLR 24/19 A3007 RMK AO2 PWINO
KIMM 052215Z AUTO 04007KT 10SM CLR 25/19 A3007 RMK AO2 PWINO
KIMM 052155Z AUTO 04010KT 10SM CLR 26/19 A3007 RMK AO2 PWINO
KIMM 052135Z AUTO 03007KT 10SM FEW034 26/19 A3006 RMK AO2 PWINO